Yokkaichi, Japan

9:18 PM JST on November 24, 2014 (GMT +0900)
SUZUKA | Change Station
CLOSE
Current Station
Personal Weather Station
Location: %u9234%u9E7F%u5E02, %U4E09%U91CD%U770C
Elevation: 33 ft
Nearby Weather Stations

Elev 33 ft 34.88 °N, 136.57 °E | Updated 19 seconds ago

Clear
Clear
52.9 °F
Feels Like 52.9 °F
N
0.0
Wind Variable Wind from North
Gusts 0.0 mph

Today
High -- | Low -- °F
--% Chance of Precip.
Yesterday
High -- | Low -- °F
Precip. -- in
6:36 AM 4:44 PM
Waxing Crescent, 5% visible
Pressure 30.06 in
Visibility -9999.0 miles
Clouds
Dew Point 47 °F
Humidity 81%
Rainfall 0.00 in
Snow Depth Not available.
UV Not available.
Pollen Not available.
Air Quality Not available.
Flu Activity Not available.
METAR RJGG 241200Z 27004KT CAVOK 15/09 Q1018 NOSIG

More Conditions Fewer Conditions

Pressure 30.06 in
Visibility -9999.0 miles
Clouds
Dew Point 47 °F
Humidity 81%
Rainfall 0.00 in
Snow Depth Not available.
UV Not available.
Pollen Not available.
Air Quality Not available.
Flu Activity Not available.
METAR RJGG 241200Z 27004KT CAVOK 15/09 Q1018 NOSIG

More Conditions Fewer Conditions

10-Day Weather Forecast

Almanac

Astronomy

Nov. 24, 2014 Rise Set
Actual Time
Civil Twilight
Nautical Twilight
Astronomical Twilight
Moon
Length of Visible Light
Length of Day
Tomorrow will be .
, % of the Moon is Illuminated

Today's Extremes

Country Highs Country Lows

Community

WunderPhotos

Upload Photos

1,773,319 photos uploaded!

WunderBlogs® & News

Nearby

Air Quality

  Air Quality AQ Index Pollutant
Not available.

Snow Depth

Station Depth Elevation

Earthquake Activity

City Distance Mag. Time & Date
Minimum magnitude displayed is 2.5.

Coastal Water Temperatures

Place Temperature

Nearby Weather Stations